Time;durP1;ratioP1;P1;durP2;ratioP2;P2;SDS_P1;SDS_P2;PMS_P1;PMS_P2;Temp;Humidity;BMP_temperature;BMP_pressure;BME280_temperature;BME280_humidity;BME280_pressure;Samples;Min_cycle;Max_cycle;Signal;HPM_P1;HPM_P2
2022/01/21 00:00:59;;;;;;;5.35;3.00;;;0.60;99.90;;;;;;5054404;28;20255;-81
2022/01/21 00:03:27;;;;;;;6.47;2.80;;;0.50;99.90;;;;;;5046839;28;20199;-80
2022/01/21 00:05:54;;;;;;;3.22;2.90;;;0.50;99.90;;;;;;5051658;28;20205;-81
2022/01/21 00:08:20;;;;;;;3.88;1.85;;;0.40;99.90;;;;;;5047875;28;20205;-79
2022/01/21 00:10:47;;;;;;;4.22;3.33;;;0.40;99.90;;;;;;5033364;28;20249;-79
2022/01/21 00:13:20;;;;;;;3.60;3.17;;;0.40;99.90;;;;;;5046650;28;20201;-80
2022/01/21 00:15:47;;;;;;;4.40;2.58;;;0.40;99.90;;;;;;5053269;28;20213;-80
2022/01/21 00:18:14;;;;;;;4.00;2.08;;;0.30;99.90;;;;;;5041562;28;20217;-81
2022/01/21 00:31:39;;;;;;;1.92;1.65;;;0.20;99.90;;;;;;5054126;28;20295;-80
2022/01/21 00:34:05;;;;;;;2.70;1.83;;;0.20;99.90;;;;;;5045915;28;20209;-80
2022/01/21 00:36:33;;;;;;;3.67;2.47;;;0.30;99.90;;;;;;5043288;28;20198;-81
2022/01/21 00:38:59;;;;;;;3.22;1.95;;;0.20;99.90;;;;;;5058173;28;20209;-80
2022/01/21 00:41:36;;;;;;;4.88;2.45;;;0.20;99.90;;;;;;5043180;28;20305;-80
2022/01/21 00:44:04;;;;;;;1.77;1.40;;;0.20;99.90;;;;;;5045166;28;20615;-80
2022/01/21 00:46:31;;;;;;;4.03;2.03;;;0.20;99.90;;;;;;5057428;28;20207;-80
2022/01/21 00:48:58;;;;;;;2.13;1.92;;;0.20;99.90;;;;;;5050848;28;20610;-79
2022/01/21 00:51:25;;;;;;;4.97;1.73;;;0.30;99.90;;;;;;5037666;28;20234;-80
2022/01/21 00:53:52;;;;;;;3.63;2.08;;;0.20;99.90;;;;;;5043146;28;20202;-78
2022/01/21 00:56:18;;;;;;;2.78;1.95;;;0.30;99.90;;;;;;5057434;28;20206;-80
2022/01/21 00:58:45;;;;;;;3.90;2.17;;;0.40;99.90;;;;;;5052967;28;20203;-80
2022/01/21 01:01:13;;;;;;;2.25;1.80;;;0.40;99.90;;;;;;5036431;28;20238;-80
2022/01/21 01:03:40;;;;;;;2.75;2.55;;;0.40;99.90;;;;;;5039098;28;20212;-80
2022/01/21 01:06:07;;;;;;;2.90;2.65;;;0.40;99.90;;;;;;5039205;28;20649;-80
2022/01/21 01:08:33;;;;;;;4.13;1.02;;;0.40;99.90;;;;;;5046612;28;20673;-79
2022/01/21 01:11:17;;;;;;;2.15;2.05;;;0.40;99.90;;;;;;5036620;28;20230;-79
2022/01/21 01:21:58;;;;;;;7.22;1.50;;;0.50;99.90;;;;;;5046711;28;20579;-80
2022/01/21 01:29:56;;;;;;;1.90;1.80;;;0.40;99.90;;;;;;5050636;28;20293;-80
2022/01/21 01:32:27;;;;;;;2.38;1.88;;;0.40;99.90;;;;;;5042847;28;20206;-79
2022/01/21 01:34:54;;;;;;;0.57;0.57;;;0.40;99.90;;;;;;5036695;28;20202;-80
2022/01/21 01:37:34;;;;;;;1.35;1.25;;;0.40;99.90;;;;;;5049882;28;20207;-78
2022/01/21 01:40:14;;;;;;;1.77;1.67;;;0.40;99.90;;;;;;5076458;28;20653;-80
2022/01/21 01:43:04;;;;;;;2.17;1.98;;;0.50;99.90;;;;;;5075965;28;20211;-80
2022/01/21 01:51:04;;;;;;;1.30;1.25;;;0.50;99.90;;;;;;4993973;28;20261;-80
2022/01/21 01:53:35;;;;;;;4.90;2.35;;;0.50;99.90;;;;;;5033596;28;20208;-80
2022/01/21 01:56:04;;;;;;;1.98;1.40;;;0.40;99.90;;;;;;5048761;28;20213;-80
2022/01/21 01:58:35;;;;;;;3.90;1.73;;;0.40;99.90;;;;;;5036001;28;20210;-79
2022/01/21 02:01:02;;;;;;;4.43;2.22;;;0.40;99.90;;;;;;5052566;28;20228;-79
2022/01/21 02:03:32;;;;;;;4.10;2.17;;;0.40;99.90;;;;;;5050330;28;20217;-80
2022/01/21 02:05:59;;;;;;;3.67;2.05;;;0.40;99.90;;;;;;5035771;28;20213;-80
2022/01/21 02:08:26;;;;;;;4.03;2.70;;;0.40;99.90;;;;;;5039280;28;20213;-80
2022/01/21 02:10:53;;;;;;;3.33;2.55;;;0.40;99.90;;;;;;5038996;28;20222;-80
2022/01/21 02:13:22;;;;;;;2.03;1.77;;;0.40;99.90;;;;;;5038161;28;20210;-80
2022/01/21 02:16:01;;;;;;;2.58;2.40;;;0.30;99.90;;;;;;5040443;28;20208;-80
2022/01/21 02:21:35;;;;;;;5.90;5.05;;;0.30;99.90;;;;;;5054906;28;20717;-80
2022/01/21 02:24:07;;;;;;;3.00;2.80;;;0.30;99.90;;;;;;5038498;28;20203;-80
2022/01/21 02:26:34;;;;;;;3.05;1.70;;;0.40;99.90;;;;;;5035425;28;20203;-80
2022/01/21 02:29:03;;;;;;;5.82;2.50;;;0.30;99.90;;;;;;5051240;28;20206;-80
2022/01/21 02:31:30;;;;;;;3.53;2.65;;;0.30;99.90;;;;;;5050380;28;20242;-80
2022/01/21 02:33:57;;;;;;;4.80;2.03;;;0.30;99.90;;;;;;5035064;28;20649;-80
2022/01/21 02:36:26;;;;;;;4.75;2.75;;;0.30;99.90;;;;;;5036844;28;20567;-79
2022/01/21 02:38:53;;;;;;;1.17;1.00;;;0.20;99.90;;;;;;5036574;28;20211;-79
2022/01/21 02:41:20;;;;;;;5.50;2.67;;;0.10;99.90;;;;;;5036165;28;20230;-80
2022/01/21 02:43:47;;;;;;;4.00;2.42;;;0.10;99.90;;;;;;5058319;28;20217;-78
2022/01/21 02:46:15;;;;;;;5.95;3.63;;;0.10;99.90;;;;;;5044337;28;20764;-79
2022/01/21 02:48:43;;;;;;;6.72;2.88;;;0.10;99.90;;;;;;5034721;28;20644;-80
2022/01/21 02:51:12;;;;;;;4.28;3.33;;;0.10;99.90;;;;;;5033304;28;20600;-77
2022/01/21 02:56:22;;;;;;;5.82;3.65;;;0.10;99.90;;;;;;5040193;28;20203;-79
2022/01/21 02:58:49;;;;;;;3.83;2.42;;;0.10;99.90;;;;;;5051388;28;20601;-79
2022/01/21 03:01:17;;;;;;;6.60;3.22;;;0.10;99.90;;;;;;5044317;28;20222;-82
2022/01/21 03:03:45;;;;;;;5.70;2.95;;;0.20;99.90;;;;;;5047111;28;20213;-80
2022/01/21 03:06:12;;;;;;;4.85;2.50;;;0.10;99.90;;;;;;5045958;28;20203;-79
2022/01/21 03:08:40;;;;;;;9.27;2.55;;;0.10;99.90;;;;;;5033327;28;20208;-78
2022/01/21 03:11:07;;;;;;;2.75;2.08;;;0.10;99.90;;;;;;5038969;28;20214;-80
2022/01/21 03:13:33;;;;;;;8.98;2.65;;;0.10;99.90;;;;;;5053371;28;20216;-79
2022/01/21 03:16:00;;;;;;;3.67;2.83;;;0.10;99.90;;;;;;5042729;28;20204;-80
2022/01/21 03:18:27;;;;;;;5.68;2.85;;;0.10;99.90;;;;;;5033972;28;20210;-78
2022/01/21 03:20:54;;;;;;;1.85;1.75;;;0.20;99.90;;;;;;5046592;28;20671;-78
2022/01/21 03:23:22;;;;;;;4.90;3.13;;;0.10;99.90;;;;;;5052989;28;20206;-80
2022/01/21 03:25:50;;;;;;;2.92;1.60;;;0.20;99.90;;;;;;5040749;28;20209;-79
2022/01/21 03:28:17;;;;;;;2.75;2.65;;;0.20;99.90;;;;;;5034457;28;20203;-79
2022/01/21 03:30:44;;;;;;;6.10;4.50;;;0.20;99.90;;;;;;5045147;28;20226;-78
2022/01/21 03:33:10;;;;;;;4.43;2.80;;;0.20;99.90;;;;;;5053742;28;20212;-79
2022/01/21 03:35:38;;;;;;;5.20;2.17;;;0.20;99.90;;;;;;5043407;28;20206;-79
2022/01/21 03:38:05;;;;;;;3.28;2.30;;;0.20;99.90;;;;;;5033897;28;20482;-78
2022/01/21 03:40:32;;;;;;;7.95;2.45;;;0.30;99.90;;;;;;5051733;28;20234;-79
2022/01/21 03:43:00;;;;;;;3.30;3.03;;;0.20;99.90;;;;;;5053714;28;20235;-79
2022/01/21 03:45:27;;;;;;;5.07;2.70;;;0.30;99.90;;;;;;5036570;28;20214;-78
2022/01/21 03:47:53;;;;;;;2.15;2.05;;;0.40;99.90;;;;;;5041284;28;20213;-79
2022/01/21 03:50:23;;;;;;;3.03;2.50;;;0.30;99.90;;;;;;5053198;28;20316;-78
2022/01/21 03:52:51;;;;;;;2.70;2.50;;;0.30;99.90;;;;;;5046789;28;20260;-78
2022/01/21 03:55:18;;;;;;;3.55;2.53;;;0.40;99.90;;;;;;5035496;28;20545;-80
2022/01/21 03:57:45;;;;;;;2.72;2.38;;;0.30;99.90;;;;;;5047987;28;20571;-80
2022/01/21 04:00:18;;;;;;;5.70;2.55;;;0.30;99.90;;;;;;5049542;28;20222;-79
2022/01/21 04:02:45;;;;;;;5.70;3.17;;;0.30;99.90;;;;;;5035226;28;20213;-77
2022/01/21 04:05:12;;;;;;;4.50;2.95;;;0.30;99.90;;;;;;5038819;28;20199;-80
2022/01/21 04:07:39;;;;;;;4.28;2.83;;;0.30;99.90;;;;;;5054770;28;20208;-78
2022/01/21 04:10:07;;;;;;;5.60;3.17;;;0.30;99.90;;;;;;5052402;28;20308;-82
2022/01/21 04:12:34;;;;;;;5.25;2.95;;;0.30;99.90;;;;;;5034790;28;20209;-79
2022/01/21 04:15:01;;;;;;;5.18;2.38;;;0.30;99.90;;;;;;5036607;28;20222;-78
2022/01/21 04:17:29;;;;;;;3.22;2.92;;;0.40;99.90;;;;;;5054735;28;20209;-79
2022/01/21 04:19:56;;;;;;;3.40;2.50;;;0.30;99.90;;;;;;5054858;28;20230;-81
2022/01/21 04:22:23;;;;;;;3.75;3.03;;;0.30;99.90;;;;;;5039936;28;20226;-79
2022/01/21 04:24:50;;;;;;;6.22;3.60;;;0.30;99.90;;;;;;5040877;28;20583;-81
2022/01/21 04:27:18;;;;;;;4.38;2.47;;;0.30;99.90;;;;;;5054109;28;20678;-79
2022/01/21 04:29:45;;;;;;;5.30;3.97;;;0.20;99.90;;;;;;5048048;28;20207;-79
2022/01/21 04:32:12;;;;;;;8.18;4.75;;;0.30;99.90;;;;;;5033124;28;20669;-79
2022/01/21 04:34:40;;;;;;;4.10;3.63;;;0.20;99.90;;;;;;5036778;28;20208;-80
2022/01/21 04:37:11;;;;;;;2.50;2.30;;;0.20;99.90;;;;;;5050997;28;20209;-79
2022/01/21 04:39:43;;;;;;;4.93;3.60;;;0.10;99.90;;;;;;5033026;28;20207;-79
2022/01/21 04:47:44;;;;;;;5.28;3.28;;;0.10;99.90;;;;;;5000637;28;20203;-78
2022/01/21 04:50:14;;;;;;;6.75;3.33;;;0.10;99.90;;;;;;5038113;28;20230;-80
2022/01/21 04:52:42;;;;;;;3.08;2.83;;;0.10;99.90;;;;;;5039501;28;20209;-80
2022/01/21 04:55:10;;;;;;;5.20;3.85;;;0.10;99.90;;;;;;5038520;28;20198;-77
2022/01/21 04:57:37;;;;;;;5.05;3.17;;;0.20;99.90;;;;;;5038910;28;20491;-78
2022/01/21 05:00:06;;;;;;;5.15;3.95;;;0.20;99.90;;;;;;5036064;28;20229;-80
2022/01/21 05:02:34;;;;;;;2.95;2.75;;;0.20;99.90;;;;;;5032509;28;20231;-80
2022/01/21 05:05:02;;;;;;;14.23;3.65;;;0.10;99.90;;;;;;5032524;28;20306;-80
2022/01/21 05:07:34;;;;;;;4.65;3.70;;;0.10;99.90;;;;;;5032500;28;20213;-81
2022/01/21 05:10:02;;;;;;;3.47;3.17;;;0.10;99.90;;;;;;5032421;28;20241;-80
2022/01/21 05:12:29;;;;;;;7.82;4.18;;;0.20;99.90;;;;;;5032733;28;20214;-80
2022/01/21 05:15:11;;;;;;;8.88;3.50;;;0.20;99.90;;;;;;5032346;28;20228;-80
2022/01/21 05:17:44;;;;;;;4.10;3.72;;;0.10;99.90;;;;;;5034800;28;20210;-80
2022/01/21 05:20:11;;;;;;;3.60;3.25;;;0.20;99.90;;;;;;5035606;28;20289;-80
2022/01/21 05:22:40;;;;;;;3.95;3.53;;;0.20;99.90;;;;;;5035843;28;20225;-80
2022/01/21 05:25:07;;;;;;;6.25;2.92;;;0.20;99.90;;;;;;5036409;28;20206;-80
2022/01/21 05:27:35;;;;;;;4.85;3.45;;;0.20;99.90;;;;;;5035627;28;20294;-80
2022/01/21 05:30:01;;;;;;;9.95;4.50;;;0.30;99.90;;;;;;5035766;28;20224;-80
2022/01/21 05:32:28;;;;;;;5.50;3.25;;;0.30;99.90;;;;;;5035549;28;20206;-80
2022/01/21 05:34:55;;;;;;;6.28;3.10;;;0.30;99.90;;;;;;5036021;28;20202;-79
2022/01/21 05:37:22;;;;;;;3.42;3.22;;;0.30;99.90;;;;;;5035494;28;20194;-80
2022/01/21 05:39:51;;;;;;;9.10;3.67;;;0.30;99.90;;;;;;5052231;28;20212;-80
2022/01/21 05:42:19;;;;;;;5.60;3.28;;;0.30;99.90;;;;;;5075657;28;20221;-79
2022/01/21 05:47:30;;;;;;;4.50;2.95;;;0.40;99.90;;;;;;5070215;28;20206;-80
2022/01/21 05:49:57;;;;;;;3.10;2.60;;;0.40;99.90;;;;;;5055613;28;20227;-79
2022/01/21 05:52:33;;;;;;;4.47;4.00;;;0.30;99.90;;;;;;5053860;28;20214;-80
2022/01/21 05:55:01;;;;;;;4.13;3.80;;;0.20;99.90;;;;;;5055932;28;20294;-78
2022/01/21 05:57:30;;;;;;;3.17;2.85;;;0.30;99.90;;;;;;5055097;28;20297;-79
2022/01/21 05:59:56;;;;;;;18.80;3.92;;;0.20;99.90;;;;;;5055639;28;20225;-80
2022/01/21 06:02:23;;;;;;;7.03;4.55;;;0.20;99.90;;;;;;5039252;28;20230;-80
2022/01/21 06:04:51;;;;;;;4.03;3.70;;;0.20;99.90;;;;;;5037938;28;20217;-79
2022/01/21 06:07:18;;;;;;;2.83;2.63;;;0.30;99.90;;;;;;5037566;28;20277;-79
2022/01/21 06:09:45;;;;;;;5.65;3.13;;;0.20;99.90;;;;;;5035607;28;20203;-80
2022/01/21 06:12:13;;;;;;;8.00;3.90;;;0.30;99.90;;;;;;5037890;28;20580;-80
2022/01/21 06:14:40;;;;;;;6.07;3.90;;;0.30;99.90;;;;;;5035470;28;20206;-79
2022/01/21 06:17:07;;;;;;;6.28;3.67;;;0.30;99.90;;;;;;5035474;28;20198;-81
2022/01/21 06:19:34;;;;;;;6.45;4.25;;;0.30;99.90;;;;;;5055410;28;20206;-80
2022/01/21 06:22:00;;;;;;;7.60;3.78;;;0.30;99.90;;;;;;5045232;28;20249;-80
2022/01/21 06:24:27;;;;;;;5.78;4.55;;;0.30;99.90;;;;;;5035566;28;20215;-81
2022/01/21 06:26:59;;;;;;;5.68;4.50;;;0.30;99.90;;;;;;5042928;28;20209;-79
2022/01/21 06:29:27;;;;;;;5.47;3.92;;;0.40;99.90;;;;;;5053691;28;20558;-80
2022/01/21 06:31:54;;;;;;;7.47;3.70;;;0.30;99.90;;;;;;5047641;28;20222;-79
2022/01/21 06:34:21;;;;;;;7.70;4.32;;;0.40;99.90;;;;;;5035293;28;20217;-79
2022/01/21 06:36:47;;;;;;;7.30;4.53;;;0.50;99.90;;;;;;5050362;28;20205;-80
2022/01/21 06:39:14;;;;;;;7.38;5.55;;;0.60;99.90;;;;;;5055677;28;20217;-80
2022/01/21 06:41:44;;;;;;;6.35;4.25;;;0.60;99.90;;;;;;5057059;28;20232;-79
2022/01/21 06:44:11;;;;;;;7.30;3.80;;;0.60;99.90;;;;;;5054763;28;20209;-79
2022/01/21 06:46:39;;;;;;;11.02;4.05;;;0.60;99.90;;;;;;5052823;28;20208;-80
2022/01/21 06:49:05;;;;;;;4.78;3.58;;;0.60;99.90;;;;;;5052333;28;20210;-80
2022/01/21 06:51:32;;;;;;;3.80;3.42;;;0.60;99.90;;;;;;5033784;28;20233;-80
2022/01/21 06:53:59;;;;;;;5.80;3.63;;;0.70;99.90;;;;;;5033290;28;20584;-79
2022/01/21 06:56:26;;;;;;;4.75;4.15;;;0.60;99.90;;;;;;5034731;28;20589;-80
2022/01/21 06:58:52;;;;;;;9.55;5.20;;;0.60;99.90;;;;;;5034952;28;20206;-80
2022/01/21 07:01:19;;;;;;;6.05;5.00;;;0.60;99.90;;;;;;5033188;28;20225;-79
2022/01/21 07:03:47;;;;;;;6.90;4.65;;;0.50;99.90;;;;;;5033376;28;20206;-80
2022/01/21 07:06:14;;;;;;;6.72;4.40;;;0.50;99.90;;;;;;5033481;28;20233;-79
2022/01/21 07:08:41;;;;;;;4.65;4.25;;;0.50;99.90;;;;;;5034215;28;20199;-81
2022/01/21 07:11:07;;;;;;;13.93;5.88;;;0.50;99.90;;;;;;5035490;28;20235;-81
2022/01/21 07:13:34;;;;;;;10.90;4.45;;;0.50;99.90;;;;;;5036010;28;20206;-81
2022/01/21 07:16:01;;;;;;;11.10;4.72;;;0.40;99.90;;;;;;5035599;28;20238;-79
2022/01/21 07:18:28;;;;;;;7.53;4.60;;;0.60;99.90;;;;;;5033363;28;20199;-79
2022/01/21 07:20:56;;;;;;;6.30;5.20;;;0.60;99.90;;;;;;5034399;28;20230;-79
2022/01/21 07:23:23;;;;;;;8.25;4.97;;;0.40;99.90;;;;;;5034188;28;20226;-78
2022/01/21 07:25:50;;;;;;;9.27;4.93;;;0.40;99.90;;;;;;5033011;28;20210;-79
2022/01/21 07:28:16;;;;;;;12.73;5.05;;;0.50;99.90;;;;;;5032733;28;20550;-82
2022/01/21 07:30:43;;;;;;;5.63;5.13;;;0.50;99.90;;;;;;5033676;28;20222;-79
2022/01/21 07:33:10;;;;;;;4.05;3.17;;;0.50;99.90;;;;;;5033415;28;20205;-81
2022/01/21 07:35:37;;;;;;;4.72;4.00;;;0.40;99.90;;;;;;5033234;28;20205;-79
2022/01/21 07:38:05;;;;;;;8.57;4.90;;;0.30;99.90;;;;;;5032935;28;20212;-79
2022/01/21 07:40:32;;;;;;;7.85;5.57;;;0.30;99.90;;;;;;5033894;28;20230;-81
2022/01/21 07:42:59;;;;;;;11.52;5.53;;;0.40;99.90;;;;;;5033592;28;20224;-79
2022/01/21 07:45:26;;;;;;;6.07;5.40;;;0.40;99.90;;;;;;5050071;28;20204;-79
2022/01/21 07:47:52;;;;;;;6.70;4.78;;;0.40;99.90;;;;;;5060315;28;20216;-79
2022/01/21 07:50:19;;;;;;;4.75;4.35;;;0.40;99.90;;;;;;5062039;28;20230;-79
2022/01/21 07:52:46;;;;;;;6.88;5.35;;;0.50;99.90;;;;;;5063639;28;20578;-79
2022/01/21 07:55:14;;;;;;;9.23;5.28;;;0.60;99.90;;;;;;5063553;28;20602;-79
2022/01/21 07:57:41;;;;;;;6.65;4.65;;;0.50;99.90;;;;;;5062795;28;20201;-79
2022/01/21 08:00:09;;;;;;;12.63;5.35;;;0.50;99.90;;;;;;5059559;28;20220;-79
2022/01/21 08:02:36;;;;;;;8.40;5.20;;;0.60;99.90;;;;;;5063846;28;20220;-79
2022/01/21 08:05:05;;;;;;;9.75;6.57;;;0.70;99.90;;;;;;5054085;28;20231;-79
2022/01/21 08:07:32;;;;;;;8.15;5.38;;;0.70;99.90;;;;;;5056991;28;20314;-79
2022/01/21 08:09:58;;;;;;;8.05;7.03;;;0.80;99.90;;;;;;5064081;28;20226;-79
2022/01/21 08:12:26;;;;;;;8.90;6.78;;;0.90;99.90;;;;;;5059721;28;20682;-78
2022/01/21 08:14:53;;;;;;;10.52;5.45;;;0.80;99.90;;;;;;5061622;28;20194;-78
2022/01/21 08:17:20;;;;;;;8.45;6.03;;;0.60;99.90;;;;;;5065113;28;20538;-81
2022/01/21 08:19:47;;;;;;;7.68;5.20;;;0.50;99.90;;;;;;5060920;28;20200;-79
2022/01/21 08:22:14;;;;;;;7.13;5.18;;;0.60;99.90;;;;;;5063949;28;20218;-79
2022/01/21 08:24:40;;;;;;;6.93;5.10;;;0.60;99.90;;;;;;5062899;28;20197;-79
2022/01/21 08:27:07;;;;;;;7.95;5.00;;;0.60;99.90;;;;;;5065299;28;20210;-78
2022/01/21 08:29:36;;;;;;;6.55;4.82;;;0.60;99.90;;;;;;5075670;28;20229;-80
2022/01/21 08:32:03;;;;;;;6.55;5.97;;;0.60;99.90;;;;;;5048804;28;20198;-78
2022/01/21 08:34:34;;;;;;;8.68;5.18;;;0.70;99.90;;;;;;5034137;28;20692;-78
2022/01/21 08:37:01;;;;;;;5.22;3.80;;;0.70;99.90;;;;;;5045788;28;20260;-79
2022/01/21 08:39:28;;;;;;;9.02;5.90;;;0.80;99.90;;;;;;5053124;28;20246;-79
2022/01/21 08:41:55;;;;;;;14.80;4.95;;;0.90;99.90;;;;;;5042313;28;20739;-79
2022/01/21 08:44:21;;;;;;;11.45;4.63;;;0.80;99.90;;;;;;5033526;28;20568;-78
2022/01/21 08:46:50;;;;;;;6.47;5.05;;;0.70;99.90;;;;;;5033081;28;20211;-79
2022/01/21 08:49:19;;;;;;;10.68;6.95;;;0.80;99.90;;;;;;5033233;28;20684;-78
2022/01/21 08:51:51;;;;;;;11.27;5.70;;;0.80;99.90;;;;;;5034292;28;20262;-79
2022/01/21 08:54:18;;;;;;;5.05;4.50;;;0.80;99.90;;;;;;5038306;28;20203;-78
2022/01/21 08:56:46;;;;;;;6.07;2.47;;;0.70;99.90;;;;;;5037794;28;20203;-78
2022/01/21 08:59:13;;;;;;;7.55;5.40;;;0.70;99.90;;;;;;5055327;28;20205;-80
2022/01/21 09:01:40;;;;;;;9.85;6.28;;;0.70;99.90;;;;;;5061092;28;20222;-80
2022/01/21 09:04:08;;;;;;;7.60;5.45;;;0.60;99.90;;;;;;5072379;28;20209;-80
2022/01/21 09:06:35;;;;;;;5.78;4.88;;;0.70;99.90;;;;;;5067118;28;20573;-80
2022/01/21 09:09:02;;;;;;;7.10;6.03;;;0.80;99.90;;;;;;5052109;28;20205;-79
2022/01/21 09:11:29;;;;;;;12.93;6.70;;;0.90;99.90;;;;;;5042298;28;20664;-79
2022/01/21 09:13:56;;;;;;;7.97;5.25;;;0.90;99.90;;;;;;5039323;28;20209;-79
2022/01/21 09:16:23;;;;;;;10.77;6.25;;;0.90;99.90;;;;;;5050816;28;20411;-80
2022/01/21 09:18:52;;;;;;;7.03;4.38;;;1.00;99.90;;;;;;5063248;28;20661;-80
2022/01/21 09:21:57;;;;;;;10.80;6.07;;;1.00;99.90;;;;;;5056215;28;20229;-82
2022/01/21 09:24:25;;;;;;;9.65;5.38;;;1.10;99.90;;;;;;5053556;28;20205;-83
2022/01/21 09:27:06;;;;;;;5.00;4.55;;;1.20;99.90;;;;;;5053757;28;20214;-83
2022/01/21 09:29:34;;;;;;;7.97;6.10;;;1.20;99.90;;;;;;5051727;28;20201;-81
2022/01/21 09:32:02;;;;;;;9.00;5.47;;;1.20;99.90;;;;;;5043619;28;20203;-81
2022/01/21 09:34:29;;;;;;;11.43;7.75;;;1.20;99.90;;;;;;5038404;28;20207;-82
2022/01/21 09:36:58;;;;;;;7.65;5.20;;;1.30;99.90;;;;;;5046986;28;20206;-81
2022/01/21 09:39:26;;;;;;;11.57;5.15;;;1.20;99.90;;;;;;5039657;28;20206;-79
2022/01/21 09:41:58;;;;;;;9.73;4.30;;;1.20;99.90;;;;;;5052514;28;20222;-79
2022/01/21 09:44:26;;;;;;;6.00;4.88;;;1.10;99.90;;;;;;5084651;28;20275;-79
2022/01/21 09:46:56;;;;;;;9.15;6.13;;;1.10;99.90;;;;;;5082439;28;20206;-80
2022/01/21 09:49:27;;;;;;;12.30;6.60;;;1.20;99.90;;;;;;5055734;28;20199;-79
2022/01/21 09:51:56;;;;;;;8.55;6.35;;;1.30;99.90;;;;;;5041999;28;20247;-80
2022/01/21 09:54:26;;;;;;;7.03;5.45;;;1.50;99.90;;;;;;5059899;28;20205;-79
2022/01/21 09:56:55;;;;;;;6.10;5.18;;;1.50;99.90;;;;;;5060741;28;20199;-81
2022/01/21 09:59:23;;;;;;;6.22;5.70;;;1.60;99.90;;;;;;5064730;28;20198;-81
2022/01/21 10:01:52;;;;;;;7.28;4.55;;;1.70;99.90;;;;;;5085210;28;20225;-81
2022/01/21 10:04:21;;;;;;;8.25;7.25;;;1.70;99.90;;;;;;5074735;28;20219;-82
2022/01/21 10:06:48;;;;;;;7.53;5.70;;;1.60;99.90;;;;;;5060447;28;20227;-82
2022/01/21 10:09:16;;;;;;;8.38;5.10;;;1.80;99.90;;;;;;5058818;28;20202;-82
2022/01/21 10:11:48;;;;;;;10.27;5.38;;;1.70;99.90;;;;;;5060907;28;20230;-82
2022/01/21 10:14:15;;;;;;;8.40;5.32;;;1.70;99.90;;;;;;5056597;28;20194;-81
2022/01/21 10:16:43;;;;;;;7.18;4.88;;;1.80;99.90;;;;;;5036066;28;20380;-82
2022/01/21 10:19:11;;;;;;;9.77;5.95;;;1.80;99.90;;;;;;5037376;28;20231;-81
2022/01/21 10:21:40;;;;;;;4.05;3.65;;;1.80;99.90;;;;;;5060017;28;20719;-81
2022/01/21 10:24:09;;;;;;;6.32;4.50;;;1.80;99.90;;;;;;5058143;28;20226;-81
2022/01/21 10:26:45;;;;;;;10.25;5.13;;;1.90;99.90;;;;;;5044908;28;20211;-80
2022/01/21 10:29:14;;;;;;;9.00;4.95;;;1.80;99.90;;;;;;5045938;28;20203;-82
2022/01/21 10:31:51;;;;;;;5.75;4.38;;;1.90;99.90;;;;;;5044683;28;20232;-81
2022/01/21 10:34:25;;;;;;;6.60;4.05;;;1.80;99.90;;;;;;5045057;28;20665;-81
2022/01/21 10:36:55;;;;;;;14.15;4.57;;;1.80;99.90;;;;;;5042221;28;20208;-81
2022/01/21 10:39:29;;;;;;;5.75;4.22;;;1.80;99.90;;;;;;5044570;28;20255;-83
2022/01/21 10:41:59;;;;;;;5.85;4.00;;;1.80;99.90;;;;;;5044882;28;20583;-84
2022/01/21 10:44:30;;;;;;;10.88;4.65;;;1.80;99.90;;;;;;5044635;28;20275;-81
2022/01/21 10:47:06;;;;;;;4.22;3.88;;;1.80;99.90;;;;;;5062893;28;20250;-85
2022/01/21 10:49:43;;;;;;;7.03;4.25;;;1.70;99.90;;;;;;5052094;28;20198;-85
2022/01/21 10:52:11;;;;;;;9.52;4.13;;;1.60;99.90;;;;;;5041102;28;20210;-83
2022/01/21 10:54:42;;;;;;;4.68;4.00;;;1.50;99.90;;;;;;5050202;28;20205;-81
2022/01/21 10:57:12;;;;;;;7.10;4.30;;;1.60;99.90;;;;;;5064144;28;20212;-81
2022/01/21 10:59:51;;;;;;;5.43;3.80;;;1.60;99.90;;;;;;5057771;28;20201;-81
2022/01/21 11:02:29;;;;;;;6.97;3.60;;;1.60;99.90;;;;;;5054194;28;20300;-81
2022/01/21 11:04:58;;;;;;;3.72;3.38;;;1.60;99.90;;;;;;5047918;28;20284;-80
2022/01/21 11:08:02;;;;;;;5.15;3.08;;;1.60;99.90;;;;;;5054858;28;20221;-83
2022/01/21 11:10:38;;;;;;;8.65;4.30;;;1.70;99.90;;;;;;5052242;28;20222;-80
2022/01/21 11:13:27;;;;;;;5.22;3.58;;;1.80;99.90;;;;;;5061344;28;20201;-80
2022/01/21 11:15:57;;;;;;;8.07;3.40;;;1.70;99.90;;;;;;5063864;28;20206;-80
2022/01/21 11:18:25;;;;;;;5.57;3.95;;;1.80;99.90;;;;;;5051911;28;20512;-80
2022/01/21 11:20:59;;;;;;;6.57;3.60;;;2.00;99.90;;;;;;5043277;28;20236;-83
2022/01/21 11:23:28;;;;;;;4.38;3.40;;;2.20;99.90;;;;;;5044232;28;20663;-81
2022/01/21 11:25:57;;;;;;;6.38;4.10;;;2.20;99.90;;;;;;5043040;28;20207;-82
2022/01/21 11:28:26;;;;;;;4.70;3.80;;;2.20;99.90;;;;;;5057585;28;20212;-82
2022/01/21 11:30:55;;;;;;;9.38;4.53;;;2.30;99.90;;;;;;5065544;28;20231;-82
2022/01/21 11:33:23;;;;;;;5.80;3.35;;;2.40;99.90;;;;;;5055030;28;20226;-82
2022/01/21 11:35:51;;;;;;;4.32;3.42;;;2.40;99.90;;;;;;5046480;28;20227;-82
2022/01/21 11:38:20;;;;;;;5.15;3.80;;;2.30;99.90;;;;;;5054075;28;20205;-82
2022/01/21 11:40:49;;;;;;;3.13;2.92;;;2.20;99.90;;;;;;5059372;28;20227;-82
2022/01/21 11:43:18;;;;;;;4.40;3.30;;;2.30;99.90;;;;;;5050138;28;20601;-81
2022/01/21 11:49:33;;;;;;;5.90;3.45;;;2.00;99.90;;;;;;5048703;28;20233;-84
2022/01/21 11:52:19;;;;;;;7.90;3.20;;;1.80;99.90;;;;;;5053094;28;20218;-80
2022/01/21 11:54:47;;;;;;;3.40;3.10;;;1.90;99.90;;;;;;5055816;28;20202;-80
2022/01/21 11:57:15;;;;;;;3.08;2.75;;;2.00;99.90;;;;;;5039192;28;20196;-82
2022/01/21 11:59:53;;;;;;;5.43;2.90;;;2.10;99.90;;;;;;5035980;28;20204;-82
2022/01/21 12:02:23;;;;;;;4.05;2.72;;;2.10;99.90;;;;;;5044381;28;20230;-81
2022/01/21 12:04:53;;;;;;;3.08;2.55;;;2.00;99.90;;;;;;5044539;28;20206;-82
2022/01/21 12:07:50;;;;;;;23.48;5.03;;;2.00;99.90;;;;;;5056224;28;20208;-81
2022/01/21 12:10:30;;;;;;;5.55;3.83;;;2.10;99.90;;;;;;4957691;28;20234;-81
2022/01/21 12:13:05;;;;;;;6.65;3.00;;;2.10;99.90;;;;;;5045281;28;20274;-80
2022/01/21 12:15:57;;;;;;;6.00;4.30;;;2.20;99.90;;;;;;5058098;28;20268;-81
2022/01/21 12:18:39;;;;;;;10.75;3.28;;;2.30;99.90;;;;;;5039587;28;20210;-82
2022/01/21 12:21:27;;;;;;;5.85;3.10;;;2.40;99.90;;;;;;5035534;28;20244;-80
2022/01/21 12:23:54;;;;;;;4.75;3.40;;;2.50;99.90;;;;;;5033492;28;20238;-81
2022/01/21 12:26:24;;;;;;;4.60;3.03;;;2.60;99.90;;;;;;5039178;28;20199;-81
2022/01/21 12:29:22;;;;;;;9.30;3.47;;;2.80;99.90;;;;;;5045420;28;20208;-81
2022/01/21 12:32:06;;;;;;;6.10;3.60;;;2.70;99.90;;;;;;5050733;28;20229;-81
2022/01/21 12:35:07;;;;;;;5.80;3.53;;;2.50;99.90;;;;;;5061358;28;20203;-82
2022/01/21 12:37:51;;;;;;;5.35;3.50;;;2.40;99.90;;;;;;5040048;28;20209;-81
2022/01/21 12:40:34;;;;;;;6.20;3.20;;;2.50;99.90;;;;;;5040755;28;20219;-81
2022/01/21 12:43:01;;;;;;;10.90;4.00;;;2.60;99.90;;;;;;5060346;28;20227;-80
2022/01/21 12:45:28;;;;;;;5.45;3.40;;;2.50;99.90;;;;;;5057508;28;20205;-81
2022/01/21 12:47:55;;;;;;;3.63;2.15;;;2.40;99.90;;;;;;5041218;28;20221;-80
2022/01/21 12:50:30;;;;;;;6.45;2.17;;;2.40;99.90;;;;;;5048599;28;20233;-81
2022/01/21 12:53:17;;;;;;;3.30;2.58;;;2.20;99.90;;;;;;5069396;28;20205;-81
2022/01/21 12:55:59;;;;;;;5.18;2.42;;;2.20;99.90;;;;;;5050276;28;20203;-81
2022/01/21 12:58:28;;;;;;;10.77;2.50;;;2.20;99.90;;;;;;5067753;28;20619;-80
2022/01/21 13:00:59;;;;;;;6.18;2.83;;;2.20;99.90;;;;;;5062679;28;20235;-81
2022/01/21 13:03:32;;;;;;;5.10;2.30;;;2.30;99.90;;;;;;5044140;28;20230;-81
2022/01/21 13:06:13;;;;;;;3.87;2.83;;;2.20;99.90;;;;;;5038553;28;20445;-81
2022/01/21 13:08:59;;;;;;;3.40;2.05;;;2.20;99.90;;;;;;5046518;28;20460;-82
2022/01/21 13:11:25;;;;;;;5.10;2.88;;;2.10;99.90;;;;;;5052445;28;20659;-81
2022/01/21 13:14:22;;;;;;;3.67;2.58;;;2.20;99.90;;;;;;5038746;28;20206;-83
2022/01/21 13:16:55;;;;;;;4.43;2.58;;;2.30;99.90;;;;;;5043814;28;20208;-82
2022/01/21 13:19:22;;;;;;;6.45;2.63;;;2.40;99.90;;;;;;5057239;28;20211;-80
2022/01/21 13:21:49;;;;;;;5.07;4.13;;;2.50;99.90;;;;;;5058564;28;20234;-81
2022/01/21 13:24:28;;;;;;;5.80;2.40;;;2.60;99.90;;;;;;5039236;28;20223;-82
2022/01/21 13:26:55;;;;;;;15.27;2.63;;;2.70;99.90;;;;;;5041660;28;20256;-81
2022/01/21 13:29:35;;;;;;;4.43;2.55;;;2.60;99.90;;;;;;5044821;28;20209;-82
2022/01/21 13:32:03;;;;;;;3.65;1.60;;;2.50;99.90;;;;;;5042248;28;20206;-82
2022/01/21 13:34:33;;;;;;;5.28;2.60;;;2.40;99.90;;;;;;5044306;28;20204;-82
2022/01/21 13:37:01;;;;;;;4.43;2.50;;;2.50;99.90;;;;;;5057423;28;20213;-81
2022/01/21 13:39:31;;;;;;;2.38;1.88;;;2.40;99.90;;;;;;5061849;28;20213;-81
2022/01/21 13:42:02;;;;;;;3.40;3.10;;;2.40;99.90;;;;;;5060959;28;20436;-80
2022/01/21 13:44:35;;;;;;;5.65;2.70;;;2.30;99.90;;;;;;5052678;28;20257;-79
2022/01/21 13:47:06;;;;;;;3.25;2.35;;;2.30;99.90;;;;;;5058430;28;20212;-79
2022/01/21 13:49:34;;;;;;;5.75;2.22;;;2.30;99.90;;;;;;5056908;28;20219;-79
2022/01/21 13:52:03;;;;;;;2.53;2.08;;;2.20;99.90;;;;;;5035421;28;20217;-79
2022/01/21 13:54:37;;;;;;;3.83;3.17;;;2.30;99.90;;;;;;5046343;28;20204;-79
2022/01/21 13:57:06;;;;;;;6.30;3.95;;;2.20;99.90;;;;;;5035027;28;20208;-78